sensor_id;sensor_type;location;lat;lon;timestamp;P1;durP1;ratioP1;P2;durP2;ratioP2
77280;SDS011;66339;47.262;17.144;2023-01-01T00:01:26;11.50;;;4.00;;
77280;SDS011;66339;47.262;17.144;2023-01-01T00:03:55;7.65;;;3.83;;
77280;SDS011;66339;47.262;17.144;2023-01-01T00:06:23;7.65;;;3.65;;
77280;SDS011;66339;47.262;17.144;2023-01-01T00:08:54;7.85;;;3.72;;
77280;SDS011;66339;47.262;17.144;2023-01-01T00:11:24;7.03;;;3.62;;
77280;SDS011;66339;47.262;17.144;2023-01-01T00:13:55;7.37;;;3.80;;
77280;SDS011;66339;47.262;17.144;2023-01-01T00:16:22;10.18;;;3.17;;
77280;SDS011;66339;47.262;17.144;2023-01-01T00:18:48;9.05;;;4.03;;
77280;SDS011;66339;47.262;17.144;2023-01-01T00:21:15;10.93;;;3.65;;
77280;SDS011;66339;47.262;17.144;2023-01-01T00:23:46;8.02;;;3.60;;
77280;SDS011;66339;47.262;17.144;2023-01-01T00:26:13;6.90;;;3.58;;
77280;SDS011;66339;47.262;17.144;2023-01-01T00:28:42;10.10;;;4.00;;
77280;SDS011;66339;47.262;17.144;2023-01-01T00:31:14;5.75;;;3.28;;
77280;SDS011;66339;47.262;17.144;2023-01-01T00:33:48;8.73;;;3.45;;
77280;SDS011;66339;47.262;17.144;2023-01-01T00:36:19;7.62;;;3.70;;
77280;SDS011;66339;47.262;17.144;2023-01-01T00:38:49;9.73;;;4.18;;
77280;SDS011;66339;47.262;17.144;2023-01-01T00:41:16;6.90;;;3.42;;
77280;SDS011;66339;47.262;17.144;2023-01-01T00:43:43;6.40;;;3.22;;
77280;SDS011;66339;47.262;17.144;2023-01-01T00:46:10;6.55;;;3.22;;
77280;SDS011;66339;47.262;17.144;2023-01-01T00:48:38;7.82;;;3.60;;
77280;SDS011;66339;47.262;17.144;2023-01-01T00:51:08;7.35;;;3.47;;
77280;SDS011;66339;47.262;17.144;2023-01-01T00:53:38;10.65;;;4.15;;
77280;SDS011;66339;47.262;17.144;2023-01-01T00:56:08;6.90;;;3.65;;
77280;SDS011;66339;47.262;17.144;2023-01-01T00:58:35;7.70;;;3.15;;
77280;SDS011;66339;47.262;17.144;2023-01-01T01:01:02;7.07;;;3.22;;
77280;SDS011;66339;47.262;17.144;2023-01-01T01:03:30;6.93;;;3.08;;
77280;SDS011;66339;47.262;17.144;2023-01-01T01:05:58;7.95;;;3.75;;
77280;SDS011;66339;47.262;17.144;2023-01-01T01:08:29;6.25;;;3.37;;
77280;SDS011;66339;47.262;17.144;2023-01-01T01:11:10;7.68;;;3.58;;
77280;SDS011;66339;47.262;17.144;2023-01-01T01:13:46;5.80;;;3.30;;
77280;SDS011;66339;47.262;17.144;2023-01-01T01:18:43;4.95;;;2.87;;
77280;SDS011;66339;47.262;17.144;2023-01-01T01:21:14;5.95;;;3.30;;
77280;SDS011;66339;47.262;17.144;2023-01-01T01:23:46;9.10;;;3.57;;
77280;SDS011;66339;47.262;17.144;2023-01-01T01:26:17;5.45;;;2.90;;
77280;SDS011;66339;47.262;17.144;2023-01-01T01:28:47;5.70;;;3.28;;
77280;SDS011;66339;47.262;17.144;2023-01-01T01:31:16;5.47;;;3.00;;
77280;SDS011;66339;47.262;17.144;2023-01-01T01:33:44;5.50;;;2.80;;
77280;SDS011;66339;47.262;17.144;2023-01-01T01:36:11;6.53;;;2.67;;
77280;SDS011;66339;47.262;17.144;2023-01-01T01:38:45;5.57;;;3.28;;
77280;SDS011;66339;47.262;17.144;2023-01-01T01:41:16;5.30;;;2.90;;
77280;SDS011;66339;47.262;17.144;2023-01-01T01:44:05;6.20;;;3.03;;
77280;SDS011;66339;47.262;17.144;2023-01-01T01:46:56;5.45;;;2.92;;
77280;SDS011;66339;47.262;17.144;2023-01-01T01:49:31;5.95;;;3.08;;
77280;SDS011;66339;47.262;17.144;2023-01-01T01:52:01;5.75;;;3.15;;
77280;SDS011;66339;47.262;17.144;2023-01-01T01:57:16;5.60;;;2.97;;
77280;SDS011;66339;47.262;17.144;2023-01-01T01:59:46;4.93;;;2.95;;
77280;SDS011;66339;47.262;17.144;2023-01-01T02:03:01;5.55;;;2.78;;
77280;SDS011;66339;47.262;17.144;2023-01-01T02:05:33;5.60;;;2.90;;
77280;SDS011;66339;47.262;17.144;2023-01-01T02:08:07;5.40;;;2.85;;
77280;SDS011;66339;47.262;17.144;2023-01-01T02:10:41;5.75;;;2.80;;
77280;SDS011;66339;47.262;17.144;2023-01-01T02:13:15;4.95;;;2.65;;
77280;SDS011;66339;47.262;17.144;2023-01-01T02:15:51;4.05;;;2.62;;
77280;SDS011;66339;47.262;17.144;2023-01-01T02:18:41;6.30;;;3.05;;
77280;SDS011;66339;47.262;17.144;2023-01-01T02:21:27;4.20;;;2.95;;
77280;SDS011;66339;47.262;17.144;2023-01-01T02:24:10;5.30;;;2.85;;
77280;SDS011;66339;47.262;17.144;2023-01-01T02:27:05;4.53;;;2.80;;
77280;SDS011;66339;47.262;17.144;2023-01-01T02:29:54;5.10;;;3.08;;
77280;SDS011;66339;47.262;17.144;2023-01-01T02:32:39;6.57;;;2.80;;
77280;SDS011;66339;47.262;17.144;2023-01-01T02:37:56;6.00;;;2.67;;
77280;SDS011;66339;47.262;17.144;2023-01-01T02:40:28;5.45;;;2.65;;
77280;SDS011;66339;47.262;17.144;2023-01-01T02:42:58;6.25;;;3.22;;
77280;SDS011;66339;47.262;17.144;2023-01-01T02:45:30;5.35;;;2.87;;
77280;SDS011;66339;47.262;17.144;2023-01-01T02:48:02;5.50;;;2.50;;
77280;SDS011;66339;47.262;17.144;2023-01-01T02:50:56;5.22;;;2.70;;
77280;SDS011;66339;47.262;17.144;2023-01-01T02:53:32;4.62;;;2.55;;
77280;SDS011;66339;47.262;17.144;2023-01-01T03:01:52;3.47;;;2.47;;
77280;SDS011;66339;47.262;17.144;2023-01-01T03:07:28;5.32;;;3.08;;
77280;SDS011;66339;47.262;17.144;2023-01-01T03:10:16;3.80;;;2.65;;
77280;SDS011;66339;47.262;17.144;2023-01-01T03:12:59;6.40;;;2.70;;
77280;SDS011;66339;47.262;17.144;2023-01-01T03:18:23;4.62;;;2.60;;
77280;SDS011;66339;47.262;17.144;2023-01-01T03:21:01;4.55;;;2.65;;
77280;SDS011;66339;47.262;17.144;2023-01-01T03:23:32;4.07;;;2.42;;
77280;SDS011;66339;47.262;17.144;2023-01-01T03:26:07;4.18;;;2.42;;
77280;SDS011;66339;47.262;17.144;2023-01-01T03:28:48;4.70;;;2.67;;
77280;SDS011;66339;47.262;17.144;2023-01-01T03:31:23;4.15;;;2.47;;
77280;SDS011;66339;47.262;17.144;2023-01-01T03:34:00;4.03;;;2.50;;
77280;SDS011;66339;47.262;17.144;2023-01-01T03:36:37;4.03;;;2.50;;
77280;SDS011;66339;47.262;17.144;2023-01-01T03:39:13;4.05;;;2.55;;
77280;SDS011;66339;47.262;17.144;2023-01-01T03:44:46;4.72;;;2.83;;
77280;SDS011;66339;47.262;17.144;2023-01-01T03:47:17;4.03;;;2.50;;
77280;SDS011;66339;47.262;17.144;2023-01-01T03:49:45;5.90;;;2.65;;
77280;SDS011;66339;47.262;17.144;2023-01-01T03:55:24;4.18;;;2.70;;
77280;SDS011;66339;47.262;17.144;2023-01-01T03:58:02;5.28;;;2.60;;
77280;SDS011;66339;47.262;17.144;2023-01-01T04:00:39;4.15;;;2.60;;
77280;SDS011;66339;47.262;17.144;2023-01-01T04:03:27;5.30;;;2.47;;
77280;SDS011;66339;47.262;17.144;2023-01-01T04:05:56;4.72;;;2.50;;
77280;SDS011;66339;47.262;17.144;2023-01-01T04:08:32;3.08;;;2.28;;
77280;SDS011;66339;47.262;17.144;2023-01-01T04:11:03;4.50;;;2.30;;
77280;SDS011;66339;47.262;17.144;2023-01-01T04:13:45;3.58;;;2.55;;
77280;SDS011;66339;47.262;17.144;2023-01-01T04:16:16;5.30;;;2.35;;
77280;SDS011;66339;47.262;17.144;2023-01-01T04:18:43;4.12;;;2.33;;
77280;SDS011;66339;47.262;17.144;2023-01-01T04:21:10;3.87;;;2.60;;
77280;SDS011;66339;47.262;17.144;2023-01-01T04:23:38;3.28;;;2.10;;
77280;SDS011;66339;47.262;17.144;2023-01-01T04:26:05;3.60;;;2.03;;
77280;SDS011;66339;47.262;17.144;2023-01-01T04:28:36;3.72;;;2.25;;
77280;SDS011;66339;47.262;17.144;2023-01-01T04:31:09;4.15;;;2.22;;
77280;SDS011;66339;47.262;17.144;2023-01-01T04:33:36;4.45;;;2.53;;
77280;SDS011;66339;47.262;17.144;2023-01-01T04:36:04;4.78;;;2.30;;
77280;SDS011;66339;47.262;17.144;2023-01-01T04:38:38;3.65;;;2.42;;
77280;SDS011;66339;47.262;17.144;2023-01-01T04:41:05;3.28;;;2.25;;
77280;SDS011;66339;47.262;17.144;2023-01-01T04:43:34;3.45;;;2.25;;
77280;SDS011;66339;47.262;17.144;2023-01-01T04:46:02;4.05;;;2.15;;
77280;SDS011;66339;47.262;17.144;2023-01-01T04:48:33;4.43;;;2.33;;
77280;SDS011;66339;47.262;17.144;2023-01-01T04:51:02;5.12;;;2.40;;
77280;SDS011;66339;47.262;17.144;2023-01-01T04:53:31;4.75;;;2.33;;
77280;SDS011;66339;47.262;17.144;2023-01-01T04:56:05;4.00;;;2.25;;
77280;SDS011;66339;47.262;17.144;2023-01-01T04:58:38;3.35;;;2.15;;
77280;SDS011;66339;47.262;17.144;2023-01-01T05:01:13;3.45;;;2.17;;
77280;SDS011;66339;47.262;17.144;2023-01-01T05:03:45;2.47;;;2.12;;
77280;SDS011;66339;47.262;17.144;2023-01-01T05:06:16;4.47;;;2.37;;
77280;SDS011;66339;47.262;17.144;2023-01-01T05:08:44;3.05;;;2.12;;
77280;SDS011;66339;47.262;17.144;2023-01-01T05:11:13;3.47;;;2.15;;
77280;SDS011;66339;47.262;17.144;2023-01-01T05:13:42;3.67;;;2.40;;
77280;SDS011;66339;47.262;17.144;2023-01-01T05:16:15;4.05;;;2.40;;
77280;SDS011;66339;47.262;17.144;2023-01-01T05:18:44;5.28;;;2.22;;
77280;SDS011;66339;47.262;17.144;2023-01-01T05:21:16;2.83;;;2.05;;
77280;SDS011;66339;47.262;17.144;2023-01-01T05:23:44;2.95;;;2.05;;
77280;SDS011;66339;47.262;17.144;2023-01-01T05:26:15;3.28;;;2.10;;
77280;SDS011;66339;47.262;17.144;2023-01-01T05:28:46;3.28;;;2.03;;
77280;SDS011;66339;47.262;17.144;2023-01-01T05:31:14;3.50;;;2.25;;
77280;SDS011;66339;47.262;17.144;2023-01-01T05:33:44;4.18;;;2.28;;
77280;SDS011;66339;47.262;17.144;2023-01-01T05:36:20;2.75;;;2.08;;
77280;SDS011;66339;47.262;17.144;2023-01-01T05:38:49;3.42;;;2.20;;
77280;SDS011;66339;47.262;17.144;2023-01-01T05:41:24;3.03;;;1.80;;
77280;SDS011;66339;47.262;17.144;2023-01-01T05:46:22;3.12;;;2.15;;
77280;SDS011;66339;47.262;17.144;2023-01-01T05:48:51;4.12;;;2.12;;
77280;SDS011;66339;47.262;17.144;2023-01-01T05:51:25;2.85;;;2.00;;
77280;SDS011;66339;47.262;17.144;2023-01-01T05:53:53;3.80;;;2.08;;
77280;SDS011;66339;47.262;17.144;2023-01-01T05:56:28;3.80;;;2.30;;
77280;SDS011;66339;47.262;17.144;2023-01-01T05:58:55;3.95;;;2.08;;
77280;SDS011;66339;47.262;17.144;2023-01-01T06:01:29;2.58;;;2.00;;
77280;SDS011;66339;47.262;17.144;2023-01-01T06:04:00;3.17;;;2.17;;
77280;SDS011;66339;47.262;17.144;2023-01-01T06:06:28;3.97;;;2.10;;
77280;SDS011;66339;47.262;17.144;2023-01-01T06:09:00;3.05;;;2.00;;
77280;SDS011;66339;47.262;17.144;2023-01-01T06:11:35;3.55;;;2.30;;
77280;SDS011;66339;47.262;17.144;2023-01-01T06:14:02;2.75;;;1.90;;
77280;SDS011;66339;47.262;17.144;2023-01-01T06:16:35;3.95;;;2.22;;
77280;SDS011;66339;47.262;17.144;2023-01-01T06:19:06;3.35;;;2.00;;
77280;SDS011;66339;47.262;17.144;2023-01-01T06:21:33;2.67;;;1.92;;
77280;SDS011;66339;47.262;17.144;2023-01-01T06:24:01;3.05;;;1.92;;
77280;SDS011;66339;47.262;17.144;2023-01-01T06:26:32;3.85;;;1.80;;
77280;SDS011;66339;47.262;17.144;2023-01-01T06:28:59;3.03;;;2.20;;
77280;SDS011;66339;47.262;17.144;2023-01-01T06:31:27;10.45;;;2.30;;
77280;SDS011;66339;47.262;17.144;2023-01-01T06:34:05;5.65;;;2.33;;
77280;SDS011;66339;47.262;17.144;2023-01-01T06:36:35;7.70;;;2.30;;
77280;SDS011;66339;47.262;17.144;2023-01-01T06:39:06;20.12;;;3.30;;
77280;SDS011;66339;47.262;17.144;2023-01-01T06:41:39;7.35;;;2.55;;
77280;SDS011;66339;47.262;17.144;2023-01-01T06:44:06;9.02;;;2.95;;
77280;SDS011;66339;47.262;17.144;2023-01-01T06:46:39;9.43;;;5.12;;
77280;SDS011;66339;47.262;17.144;2023-01-01T06:49:09;12.05;;;4.10;;
77280;SDS011;66339;47.262;17.144;2023-01-01T06:51:43;8.77;;;4.05;;
77280;SDS011;66339;47.262;17.144;2023-01-01T06:54:21;11.95;;;3.20;;
77280;SDS011;66339;47.262;17.144;2023-01-01T06:56:51;10.68;;;3.45;;
77280;SDS011;66339;47.262;17.144;2023-01-01T06:59:26;15.82;;;3.37;;
77280;SDS011;66339;47.262;17.144;2023-01-01T07:01:57;9.18;;;3.00;;
77280;SDS011;66339;47.262;17.144;2023-01-01T07:04:26;13.70;;;2.85;;
77280;SDS011;66339;47.262;17.144;2023-01-01T07:06:59;20.95;;;3.78;;
77280;SDS011;66339;47.262;17.144;2023-01-01T07:09:28;16.65;;;3.85;;
77280;SDS011;66339;47.262;17.144;2023-01-01T07:12:02;15.38;;;4.15;;
77280;SDS011;66339;47.262;17.144;2023-01-01T07:14:35;29.42;;;3.65;;
77280;SDS011;66339;47.262;17.144;2023-01-01T07:17:06;13.62;;;3.10;;
77280;SDS011;66339;47.262;17.144;2023-01-01T07:19:36;12.37;;;3.12;;
77280;SDS011;66339;47.262;17.144;2023-01-01T07:22:12;10.98;;;3.53;;
77280;SDS011;66339;47.262;17.144;2023-01-01T07:24:46;13.98;;;3.10;;
77280;SDS011;66339;47.262;17.144;2023-01-01T07:27:13;11.32;;;3.22;;
77280;SDS011;66339;47.262;17.144;2023-01-01T07:29:49;12.63;;;3.53;;
77280;SDS011;66339;47.262;17.144;2023-01-01T07:32:19;22.02;;;4.22;;
77280;SDS011;66339;47.262;17.144;2023-01-01T07:34:49;13.43;;;4.50;;
77280;SDS011;66339;47.262;17.144;2023-01-01T07:37:19;12.30;;;4.90;;
77280;SDS011;66339;47.262;17.144;2023-01-01T07:39:51;41.65;;;16.40;;
77280;SDS011;66339;47.262;17.144;2023-01-01T07:42:23;34.85;;;14.25;;
77280;SDS011;66339;47.262;17.144;2023-01-01T07:44:54;39.70;;;19.67;;
77280;SDS011;66339;47.262;17.144;2023-01-01T07:47:29;38.85;;;19.10;;
77280;SDS011;66339;47.262;17.144;2023-01-01T07:50:00;72.43;;;25.35;;
77280;SDS011;66339;47.262;17.144;2023-01-01T07:52:32;50.58;;;21.77;;
77280;SDS011;66339;47.262;17.144;2023-01-01T07:54:59;42.05;;;22.55;;
77280;SDS011;66339;47.262;17.144;2023-01-01T07:57:26;57.60;;;22.75;;
77280;SDS011;66339;47.262;17.144;2023-01-01T07:59:57;46.90;;;19.85;;
77280;SDS011;66339;47.262;17.144;2023-01-01T08:02:27;43.30;;;19.02;;
77280;SDS011;66339;47.262;17.144;2023-01-01T08:05:05;53.20;;;21.77;;
77280;SDS011;66339;47.262;17.144;2023-01-01T08:07:39;58.85;;;21.10;;
77280;SDS011;66339;47.262;17.144;2023-01-01T08:10:10;53.10;;;19.62;;
77280;SDS011;66339;47.262;17.144;2023-01-01T08:12:44;44.15;;;18.77;;
77280;SDS011;66339;47.262;17.144;2023-01-01T08:15:15;48.60;;;19.30;;
77280;SDS011;66339;47.262;17.144;2023-01-01T08:17:46;49.58;;;18.23;;
77280;SDS011;66339;47.262;17.144;2023-01-01T08:20:13;47.25;;;17.75;;
77280;SDS011;66339;47.262;17.144;2023-01-01T08:22:43;49.88;;;18.25;;
77280;SDS011;66339;47.262;17.144;2023-01-01T08:25:14;46.47;;;16.33;;
77280;SDS011;66339;47.262;17.144;2023-01-01T08:27:49;51.00;;;16.12;;
77280;SDS011;66339;47.262;17.144;2023-01-01T08:30:22;44.08;;;16.33;;
77280;SDS011;66339;47.262;17.144;2023-01-01T08:32:52;48.67;;;16.27;;
77280;SDS011;66339;47.262;17.144;2023-01-01T08:35:22;38.58;;;14.68;;
77280;SDS011;66339;47.262;17.144;2023-01-01T08:37:49;48.33;;;15.27;;
77280;SDS011;66339;47.262;17.144;2023-01-01T08:40:19;33.15;;;14.68;;
77280;SDS011;66339;47.262;17.144;2023-01-01T08:42:46;41.08;;;14.35;;
77280;SDS011;66339;47.262;17.144;2023-01-01T08:45:13;33.63;;;13.18;;
77280;SDS011;66339;47.262;17.144;2023-01-01T08:47:42;35.70;;;13.50;;
77280;SDS011;66339;47.262;17.144;2023-01-01T08:50:15;36.55;;;13.10;;
77280;SDS011;66339;47.262;17.144;2023-01-01T08:52:45;30.75;;;12.15;;
77280;SDS011;66339;47.262;17.144;2023-01-01T08:55:12;29.70;;;12.20;;
77280;SDS011;66339;47.262;17.144;2023-01-01T08:57:39;23.73;;;12.07;;
77280;SDS011;66339;47.262;17.144;2023-01-01T09:00:18;28.95;;;11.65;;
77280;SDS011;66339;47.262;17.144;2023-01-01T09:02:46;28.60;;;11.95;;
77280;SDS011;66339;47.262;17.144;2023-01-01T09:05:19;32.50;;;11.63;;
77280;SDS011;66339;47.262;17.144;2023-01-01T09:07:46;32.42;;;11.70;;
77280;SDS011;66339;47.262;17.144;2023-01-01T09:10:17;24.50;;;10.73;;
77280;SDS011;66339;47.262;17.144;2023-01-01T09:12:50;30.60;;;11.20;;
77280;SDS011;66339;47.262;17.144;2023-01-01T09:15:23;25.25;;;10.30;;
77280;SDS011;66339;47.262;17.144;2023-01-01T09:17:53;23.55;;;10.40;;
77280;SDS011;66339;47.262;17.144;2023-01-01T09:20:23;23.52;;;10.20;;
77280;SDS011;66339;47.262;17.144;2023-01-01T09:22:49;23.05;;;9.38;;
77280;SDS011;66339;47.262;17.144;2023-01-01T09:25:21;25.67;;;9.77;;
77280;SDS011;66339;47.262;17.144;2023-01-01T09:27:57;20.70;;;8.43;;
77280;SDS011;66339;47.262;17.144;2023-01-01T09:30:31;21.80;;;7.35;;
77280;SDS011;66339;47.262;17.144;2023-01-01T09:32:58;25.52;;;7.37;;
77280;SDS011;66339;47.262;17.144;2023-01-01T09:35:31;20.52;;;7.95;;
77280;SDS011;66339;47.262;17.144;2023-01-01T09:38:01;30.15;;;7.90;;
77280;SDS011;66339;47.262;17.144;2023-01-01T09:40:39;17.45;;;7.22;;
77280;SDS011;66339;47.262;17.144;2023-01-01T09:46:15;22.20;;;7.57;;
77280;SDS011;66339;47.262;17.144;2023-01-01T09:48:59;18.65;;;7.53;;
77280;SDS011;66339;47.262;17.144;2023-01-01T09:51:33;26.58;;;7.53;;
77280;SDS011;66339;47.262;17.144;2023-01-01T09:56:51;20.42;;;6.75;;
77280;SDS011;66339;47.262;17.144;2023-01-01T09:59:22;21.60;;;7.75;;
77280;SDS011;66339;47.262;17.144;2023-01-01T10:04:58;15.98;;;6.85;;
77280;SDS011;66339;47.262;17.144;2023-01-01T10:07:42;15.60;;;6.78;;
77280;SDS011;66339;47.262;17.144;2023-01-01T10:13:05;10.85;;;6.00;;
77280;SDS011;66339;47.262;17.144;2023-01-01T10:15:58;15.38;;;5.95;;
77280;SDS011;66339;47.262;17.144;2023-01-01T10:18:34;17.00;;;6.12;;
77280;SDS011;66339;47.262;17.144;2023-01-01T10:21:08;18.35;;;6.30;;
77280;SDS011;66339;47.262;17.144;2023-01-01T10:23:45;12.77;;;6.53;;
77280;SDS011;66339;47.262;17.144;2023-01-01T10:26:16;12.80;;;6.03;;
77280;SDS011;66339;47.262;17.144;2023-01-01T10:31:38;12.73;;;5.65;;
77280;SDS011;66339;47.262;17.144;2023-01-01T10:36:42;11.00;;;5.30;;
77280;SDS011;66339;47.262;17.144;2023-01-01T10:39:15;11.73;;;5.45;;
77280;SDS011;66339;47.262;17.144;2023-01-01T10:44:29;14.68;;;5.50;;
77280;SDS011;66339;47.262;17.144;2023-01-01T10:46:59;11.55;;;5.35;;
77280;SDS011;66339;47.262;17.144;2023-01-01T10:49:59;12.75;;;6.40;;
77280;SDS011;66339;47.262;17.144;2023-01-01T10:52:38;17.40;;;5.25;;
77280;SDS011;66339;47.262;17.144;2023-01-01T10:55:18;13.68;;;5.85;;
77280;SDS011;66339;47.262;17.144;2023-01-01T10:57:47;12.75;;;5.40;;
77280;SDS011;66339;47.262;17.144;2023-01-01T11:00:22;13.15;;;5.75;;
77280;SDS011;66339;47.262;17.144;2023-01-01T11:08:31;11.02;;;5.28;;
77280;SDS011;66339;47.262;17.144;2023-01-01T11:11:01;11.85;;;4.65;;
77280;SDS011;66339;47.262;17.144;2023-01-01T11:13:31;12.95;;;5.25;;
77280;SDS011;66339;47.262;17.144;2023-01-01T11:16:08;13.55;;;5.25;;
77280;SDS011;66339;47.262;17.144;2023-01-01T11:18:39;14.25;;;5.03;;
77280;SDS011;66339;47.262;17.144;2023-01-01T11:21:17;13.00;;;5.20;;
77280;SDS011;66339;47.262;17.144;2023-01-01T11:23:49;15.93;;;4.90;;
77280;SDS011;66339;47.262;17.144;2023-01-01T11:26:37;13.27;;;5.00;;
77280;SDS011;66339;47.262;17.144;2023-01-01T11:29:16;15.10;;;4.70;;
77280;SDS011;66339;47.262;17.144;2023-01-01T11:31:56;13.07;;;4.32;;
77280;SDS011;66339;47.262;17.144;2023-01-01T11:34:28;10.45;;;4.47;;
77280;SDS011;66339;47.262;17.144;2023-01-01T11:39:46;8.90;;;4.40;;
77280;SDS011;66339;47.262;17.144;2023-01-01T11:42:17;13.73;;;5.00;;
77280;SDS011;66339;47.262;17.144;2023-01-01T11:44:57;11.82;;;4.40;;
77280;SDS011;66339;47.262;17.144;2023-01-01T11:52:40;10.68;;;4.87;;
77280;SDS011;66339;47.262;17.144;2023-01-01T11:55:23;9.50;;;4.28;;
77280;SDS011;66339;47.262;17.144;2023-01-01T11:58:26;10.48;;;4.50;;
77280;SDS011;66339;47.262;17.144;2023-01-01T12:01:01;13.13;;;4.47;;
77280;SDS011;66339;47.262;17.144;2023-01-01T12:03:52;13.00;;;4.55;;
77280;SDS011;66339;47.262;17.144;2023-01-01T12:09:41;11.60;;;4.47;;
77280;SDS011;66339;47.262;17.144;2023-01-01T12:18:02;10.52;;;4.57;;
77280;SDS011;66339;47.262;17.144;2023-01-01T12:21:29;11.43;;;4.47;;
77280;SDS011;66339;47.262;17.144;2023-01-01T12:23:33;9.55;;;4.37;;
77280;SDS011;66339;47.262;17.144;2023-01-01T12:42:22;7.97;;;4.03;;
77280;SDS011;66339;47.262;17.144;2023-01-01T12:53:48;9.82;;;4.47;;
77280;SDS011;66339;47.262;17.144;2023-01-01T12:59:40;12.63;;;4.10;;
77280;SDS011;66339;47.262;17.144;2023-01-01T13:02:18;8.98;;;4.00;;
77280;SDS011;66339;47.262;17.144;2023-01-01T13:04:52;7.62;;;3.87;;
77280;SDS011;66339;47.262;17.144;2023-01-01T13:07:36;7.78;;;4.03;;
77280;SDS011;66339;47.262;17.144;2023-01-01T13:12:50;7.05;;;3.80;;
77280;SDS011;66339;47.262;17.144;2023-01-01T13:18:16;7.95;;;3.80;;
77280;SDS011;66339;47.262;17.144;2023-01-01T13:28:51;7.80;;;3.75;;
77280;SDS011;66339;47.262;17.144;2023-01-01T13:32:13;6.43;;;3.83;;
77280;SDS011;66339;47.262;17.144;2023-01-01T13:45:05;7.97;;;3.70;;
77280;SDS011;66339;47.262;17.144;2023-01-01T13:50:45;7.03;;;3.70;;
77280;SDS011;66339;47.262;17.144;2023-01-01T13:56:22;6.87;;;3.78;;
77280;SDS011;66339;47.262;17.144;2023-01-01T14:02:30;6.32;;;3.72;;
77280;SDS011;66339;47.262;17.144;2023-01-01T14:04:53;4.85;;;3.50;;
77280;SDS011;66339;47.262;17.144;2023-01-01T14:07:29;7.85;;;3.58;;
77280;SDS011;66339;47.262;17.144;2023-01-01T14:12:59;6.43;;;3.90;;
77280;SDS011;66339;47.262;17.144;2023-01-01T14:18:43;5.72;;;3.28;;
77280;SDS011;66339;47.262;17.144;2023-01-01T14:21:23;5.57;;;3.40;;
77280;SDS011;66339;47.262;17.144;2023-01-01T14:23:56;5.47;;;3.70;;
77280;SDS011;66339;47.262;17.144;2023-01-01T14:26:27;6.47;;;3.60;;
77280;SDS011;66339;47.262;17.144;2023-01-01T14:28:59;5.80;;;3.33;;
77280;SDS011;66339;47.262;17.144;2023-01-01T14:31:33;9.43;;;3.75;;
77280;SDS011;66339;47.262;17.144;2023-01-01T14:37:04;6.25;;;3.53;;
77280;SDS011;66339;47.262;17.144;2023-01-01T14:39:44;6.40;;;3.70;;
77280;SDS011;66339;47.262;17.144;2023-01-01T14:42:12;6.03;;;3.80;;
77280;SDS011;66339;47.262;17.144;2023-01-01T14:44:43;6.93;;;3.72;;
77280;SDS011;66339;47.262;17.144;2023-01-01T14:47:22;5.93;;;3.60;;
77280;SDS011;66339;47.262;17.144;2023-01-01T14:49:55;6.20;;;3.70;;
77280;SDS011;66339;47.262;17.144;2023-01-01T14:52:32;5.68;;;3.40;;
77280;SDS011;66339;47.262;17.144;2023-01-01T14:55:02;6.65;;;3.70;;
77280;SDS011;66339;47.262;17.144;2023-01-01T14:57:32;5.55;;;3.25;;
77280;SDS011;66339;47.262;17.144;2023-01-01T15:00:13;5.15;;;3.10;;
77280;SDS011;66339;47.262;17.144;2023-01-01T15:02:47;5.25;;;3.40;;
77280;SDS011;66339;47.262;17.144;2023-01-01T15:05:26;5.80;;;3.12;;
77280;SDS011;66339;47.262;17.144;2023-01-01T15:08:00;6.65;;;3.67;;
77280;SDS011;66339;47.262;17.144;2023-01-01T15:10:33;4.85;;;3.22;;
77280;SDS011;66339;47.262;17.144;2023-01-01T15:13:03;5.30;;;3.67;;
77280;SDS011;66339;47.262;17.144;2023-01-01T15:15:38;7.32;;;3.60;;
77280;SDS011;66339;47.262;17.144;2023-01-01T15:21:51;5.43;;;3.33;;
77280;SDS011;66339;47.262;17.144;2023-01-01T15:24:09;18.45;;;3.95;;
77280;SDS011;66339;47.262;17.144;2023-01-01T15:26:52;8.45;;;3.83;;
77280;SDS011;66339;47.262;17.144;2023-01-01T15:29:40;11.77;;;3.97;;
77280;SDS011;66339;47.262;17.144;2023-01-01T15:32:14;21.17;;;4.77;;
77280;SDS011;66339;47.262;17.144;2023-01-01T15:34:52;12.55;;;4.00;;
77280;SDS011;66339;47.262;17.144;2023-01-01T15:42:43;7.78;;;3.70;;
77280;SDS011;66339;47.262;17.144;2023-01-01T15:45:12;11.18;;;4.00;;
77280;SDS011;66339;47.262;17.144;2023-01-01T15:48:36;8.90;;;4.57;;
77280;SDS011;66339;47.262;17.144;2023-01-01T15:53:25;8.77;;;4.03;;
77280;SDS011;66339;47.262;17.144;2023-01-01T15:56:02;8.13;;;3.78;;
77280;SDS011;66339;47.262;17.144;2023-01-01T16:02:12;12.02;;;5.12;;
77280;SDS011;66339;47.262;17.144;2023-01-01T16:04:43;13.55;;;5.12;;
77280;SDS011;66339;47.262;17.144;2023-01-01T16:07:16;10.40;;;5.72;;
77280;SDS011;66339;47.262;17.144;2023-01-01T16:09:47;16.35;;;6.47;;
77280;SDS011;66339;47.262;17.144;2023-01-01T16:12:22;11.30;;;6.50;;
77280;SDS011;66339;47.262;17.144;2023-01-01T16:14:49;13.55;;;7.25;;
77280;SDS011;66339;47.262;17.144;2023-01-01T16:17:18;14.85;;;6.47;;
77280;SDS011;66339;47.262;17.144;2023-01-01T16:19:46;12.60;;;6.70;;
77280;SDS011;66339;47.262;17.144;2023-01-01T16:22:14;11.95;;;6.45;;
77280;SDS011;66339;47.262;17.144;2023-01-01T16:24:45;15.90;;;6.90;;
77280;SDS011;66339;47.262;17.144;2023-01-01T16:27:14;11.55;;;7.05;;
77280;SDS011;66339;47.262;17.144;2023-01-01T16:29:44;14.00;;;6.35;;
77280;SDS011;66339;47.262;17.144;2023-01-01T16:32:19;11.77;;;7.00;;
77280;SDS011;66339;47.262;17.144;2023-01-01T16:34:55;16.17;;;6.35;;
77280;SDS011;66339;47.262;17.144;2023-01-01T16:37:24;14.05;;;6.25;;
77280;SDS011;66339;47.262;17.144;2023-01-01T16:39:58;13.20;;;6.10;;
77280;SDS011;66339;47.262;17.144;2023-01-01T16:42:25;12.90;;;5.80;;
77280;SDS011;66339;47.262;17.144;2023-01-01T16:44:54;14.68;;;6.53;;
77280;SDS011;66339;47.262;17.144;2023-01-01T16:47:21;13.40;;;6.45;;
77280;SDS011;66339;47.262;17.144;2023-01-01T16:49:48;11.00;;;6.43;;
77280;SDS011;66339;47.262;17.144;2023-01-01T16:52:18;14.13;;;6.05;;
77280;SDS011;66339;47.262;17.144;2023-01-01T16:54:45;12.57;;;5.70;;
77280;SDS011;66339;47.262;17.144;2023-01-01T16:57:12;11.57;;;6.25;;
77280;SDS011;66339;47.262;17.144;2023-01-01T16:59:39;13.13;;;6.37;;
77280;SDS011;66339;47.262;17.144;2023-01-01T17:02:08;11.15;;;6.35;;
77280;SDS011;66339;47.262;17.144;2023-01-01T17:04:41;10.10;;;5.90;;
77280;SDS011;66339;47.262;17.144;2023-01-01T17:07:14;10.05;;;6.22;;
77280;SDS011;66339;47.262;17.144;2023-01-01T17:09:44;11.88;;;6.25;;
77280;SDS011;66339;47.262;17.144;2023-01-01T17:12:11;12.88;;;6.25;;
77280;SDS011;66339;47.262;17.144;2023-01-01T17:14:41;12.52;;;6.30;;
77280;SDS011;66339;47.262;17.144;2023-01-01T17:17:08;12.85;;;6.45;;
77280;SDS011;66339;47.262;17.144;2023-01-01T17:19:38;13.50;;;6.00;;
77280;SDS011;66339;47.262;17.144;2023-01-01T17:22:05;14.90;;;7.65;;
77280;SDS011;66339;47.262;17.144;2023-01-01T17:24:32;10.10;;;6.18;;
77280;SDS011;66339;47.262;17.144;2023-01-01T17:27:02;13.50;;;6.85;;
77280;SDS011;66339;47.262;17.144;2023-01-01T17:29:29;14.27;;;6.87;;
77280;SDS011;66339;47.262;17.144;2023-01-01T17:31:56;15.30;;;8.07;;
77280;SDS011;66339;47.262;17.144;2023-01-01T17:34:25;15.50;;;8.55;;
77280;SDS011;66339;47.262;17.144;2023-01-01T17:36:55;21.80;;;10.73;;